createdAt,value
2022-09-26T00:01:16.529Z,5.22
2022-09-26T00:03:45.386Z,3.47
2022-09-26T00:06:12.867Z,4.97
2022-09-26T00:08:40.387Z,4.20
2022-09-26T00:11:09.852Z,3.90
2022-09-26T00:13:39.192Z,5.43
2022-09-26T00:16:06.286Z,6.28
2022-09-26T00:18:33.716Z,4.50
2022-09-26T00:21:14.694Z,3.95
2022-09-26T00:23:44.692Z,3.75
2022-09-26T00:26:13.019Z,6.72
2022-09-26T00:28:40.343Z,4.95
2022-09-26T00:31:13.652Z,4.97
2022-09-26T00:33:40.563Z,5.53
2022-09-26T00:36:07.933Z,5.15
2022-09-26T00:38:35.455Z,5.80
2022-09-26T00:41:02.292Z,5.30
2022-09-26T00:43:46.212Z,5.43
2022-09-26T00:46:15.969Z,6.63
2022-09-26T00:48:46.366Z,4.90
2022-09-26T00:51:13.316Z,5.18
2022-09-26T00:53:45.273Z,4.97
2022-09-26T00:56:17.846Z,5.20
2022-09-26T00:58:56.747Z,5.88
2022-09-26T01:01:23.652Z,4.70
2022-09-26T01:03:51.697Z,5.03
2022-09-26T01:06:20.139Z,6.50
2022-09-26T01:08:53.830Z,5.10
2022-09-26T01:11:21.100Z,5.15
2022-09-26T01:13:48.732Z,5.72
2022-09-26T01:16:15.422Z,6.25
2022-09-26T01:18:43.350Z,5.70
2022-09-26T01:21:25.123Z,7.03
2022-09-26T01:23:51.805Z,5.40
2022-09-26T01:26:45.761Z,6.75
2022-09-26T01:29:34.220Z,6.65
2022-09-26T01:32:39.053Z,5.65
2022-09-26T01:35:21.337Z,5.22
2022-09-26T01:37:59.501Z,4.72
2022-09-26T01:40:45.695Z,7.25
2022-09-26T01:43:47.809Z,5.10
2022-09-26T01:46:33.329Z,6.07
2022-09-26T01:49:09.628Z,5.28
2022-09-26T01:51:51.144Z,5.45
2022-09-26T01:54:24.583Z,4.88
2022-09-26T01:56:57.589Z,3.65
2022-09-26T01:59:30.497Z,5.20
2022-09-26T02:02:03.025Z,4.00
2022-09-26T02:04:37.143Z,3.45
2022-09-26T02:07:19.034Z,3.92
2022-09-26T02:09:51.250Z,3.78
2022-09-26T02:12:32.981Z,4.57
2022-09-26T02:15:05.102Z,5.03
2022-09-26T02:30:40.269Z,5.53
2022-09-26T02:33:06.963Z,4.00
2022-09-26T02:35:52.271Z,3.83
2022-09-26T02:38:23.708Z,4.03
2022-09-26T02:41:09.154Z,4.40
2022-09-26T02:44:00.829Z,3.72
2022-09-26T02:46:54.927Z,3.63
2022-09-26T02:49:29.979Z,3.47
2022-09-26T02:52:08.995Z,4.10
2022-09-26T02:55:06.932Z,3.00
2022-09-26T02:58:15.424Z,3.20
2022-09-26T03:01:02.343Z,3.28
2022-09-26T03:03:53.996Z,3.13
2022-09-26T03:06:27.362Z,3.50
2022-09-26T03:08:56.843Z,3.35
2022-09-26T03:11:25.907Z,5.18
2022-09-26T03:13:54.835Z,3.28
2022-09-26T03:16:23.922Z,3.08
2022-09-26T03:19:01.251Z,2.65
2022-09-26T03:21:28.220Z,3.50
2022-09-26T03:23:58.186Z,2.70
2022-09-26T03:26:28.186Z,2.85
2022-09-26T03:28:56.964Z,3.63
2022-09-26T03:31:25.429Z,3.88
2022-09-26T03:33:52.757Z,2.88
2022-09-26T03:36:22.524Z,3.75
2022-09-26T03:38:49.573Z,3.38
2022-09-26T03:41:16.258Z,3.42
2022-09-26T03:43:43.973Z,3.58
2022-09-26T03:46:12.608Z,4.78
2022-09-26T03:48:40.285Z,3.67
2022-09-26T03:51:10.166Z,4.38
2022-09-26T03:53:39.938Z,3.38
2022-09-26T03:56:15.284Z,3.90
2022-09-26T03:58:42.854Z,3.42
2022-09-26T04:01:13.526Z,3.85
2022-09-26T04:03:46.447Z,3.05
2022-09-26T04:06:21.024Z,4.45
2022-09-26T04:08:50.454Z,3.95
2022-09-26T04:11:23.012Z,3.58
2022-09-26T04:13:52.848Z,5.32
2022-09-26T04:16:22.837Z,3.63
2022-09-26T04:18:50.520Z,5.00
2022-09-26T04:21:17.433Z,4.85
2022-09-26T04:23:44.856Z,4.38
2022-09-26T04:26:18.695Z,4.00
2022-09-26T04:28:50.564Z,4.85
2022-09-26T04:31:17.415Z,4.22
2022-09-26T04:33:45.270Z,2.72
2022-09-26T04:36:13.801Z,3.90
2022-09-26T04:38:41.280Z,3.50
2022-09-26T04:41:17.010Z,3.45
2022-09-26T04:43:44.058Z,4.55
2022-09-26T04:46:17.172Z,3.50
2022-09-26T04:48:48.466Z,3.38
2022-09-26T04:51:16.974Z,5.35
2022-09-26T04:53:44.199Z,3.60
2022-09-26T04:56:14.087Z,3.38
2022-09-26T04:58:42.398Z,2.97
2022-09-26T05:01:12.342Z,3.75
2022-09-26T05:03:39.493Z,2.75
2022-09-26T05:06:09.118Z,3.95
2022-09-26T05:08:41.381Z,3.38
2022-09-26T05:11:09.417Z,5.28
2022-09-26T05:13:37.951Z,3.97
2022-09-26T05:16:08.644Z,4.82
2022-09-26T05:18:37.175Z,3.47
2022-09-26T05:21:05.975Z,3.53
2022-09-26T05:23:51.783Z,3.25
2022-09-26T05:26:28.314Z,3.22
2022-09-26T05:28:57.259Z,2.88
2022-09-26T05:31:26.315Z,3.08
2022-09-26T05:33:53.245Z,2.47
2022-09-26T05:36:19.996Z,3.03
2022-09-26T05:38:46.730Z,3.45
2022-09-26T05:41:14.816Z,2.58
2022-09-26T05:43:41.574Z,4.30
2022-09-26T05:46:10.826Z,3.40
2022-09-26T05:48:39.090Z,2.63
2022-09-26T05:51:11.900Z,3.03
2022-09-26T05:53:40.145Z,3.25
2022-09-26T05:56:07.535Z,2.40
2022-09-26T05:58:36.926Z,2.42
2022-09-26T06:01:09.426Z,3.20
2022-09-26T06:03:36.958Z,2.50
2022-09-26T06:06:05.023Z,2.95
2022-09-26T06:08:33.990Z,2.90
2022-09-26T06:11:10.963Z,2.80
2022-09-26T06:13:38.161Z,1.80
2022-09-26T06:16:09.476Z,2.22
2022-09-26T06:18:42.591Z,1.90
2022-09-26T06:21:16.256Z,1.88
2022-09-26T06:42:43.194Z,1.67
2022-09-26T06:45:11.498Z,2.00
2022-09-26T06:53:08.119Z,2.33
2022-09-26T06:55:39.907Z,1.95
2022-09-26T06:58:07.472Z,2.03
2022-09-26T07:00:35.757Z,1.60
2022-09-26T07:03:03.069Z,1.70
2022-09-26T07:05:29.878Z,1.98
2022-09-26T07:07:57.814Z,1.67
2022-09-26T07:10:25.556Z,1.50
2022-09-26T07:12:53.272Z,1.63
2022-09-26T07:15:20.766Z,1.63
2022-09-26T07:17:48.414Z,1.35
2022-09-26T07:20:17.780Z,1.70
2022-09-26T07:22:44.783Z,2.25
2022-09-26T07:25:12.788Z,1.70
2022-09-26T07:27:40.837Z,1.40
2022-09-26T07:30:09.219Z,1.58
2022-09-26T07:32:36.405Z,1.45
2022-09-26T07:35:03.909Z,2.00
2022-09-26T07:37:32.063Z,2.30
2022-09-26T07:40:01.625Z,1.80
2022-09-26T07:42:28.770Z,1.50
2022-09-26T07:45:24.278Z,2.03
2022-09-26T07:48:00.829Z,1.63
2022-09-26T07:50:33.776Z,1.80
2022-09-26T07:53:00.540Z,1.95
2022-09-26T07:55:30.698Z,1.35
2022-09-26T07:58:00.406Z,1.60
2022-09-26T08:00:34.254Z,1.73
2022-09-26T08:03:01.769Z,2.67
2022-09-26T08:05:30.094Z,1.70
2022-09-26T08:07:57.523Z,1.75
2022-09-26T08:10:24.604Z,1.90
2022-09-26T08:12:51.281Z,1.90
2022-09-26T08:15:17.992Z,2.20
2022-09-26T08:17:44.696Z,2.40
2022-09-26T08:20:12.053Z,2.45
2022-09-26T08:22:38.755Z,1.90
2022-09-26T08:25:07.321Z,2.05
2022-09-26T08:27:34.620Z,2.53
2022-09-26T08:30:04.430Z,2.10
2022-09-26T08:32:32.465Z,2.85
2022-09-26T08:35:00.259Z,1.90
2022-09-26T08:37:28.197Z,2.08
2022-09-26T08:39:54.933Z,2.17
2022-09-26T08:42:45.614Z,1.58
2022-09-26T08:45:52.687Z,2.63
2022-09-26T08:48:28.603Z,1.75
2022-09-26T08:51:02.046Z,2.50
2022-09-26T08:53:40.816Z,2.00
2022-09-26T08:56:19.254Z,2.03
2022-09-26T08:58:52.324Z,2.20
2022-09-26T09:01:29.131Z,2.30
2022-09-26T09:04:07.091Z,2.78
2022-09-26T09:06:35.180Z,2.63
2022-09-26T09:09:02.042Z,2.75
2022-09-26T09:12:02.082Z,2.97
2022-09-26T09:15:02.304Z,2.15
2022-09-26T09:17:48.395Z,2.15
2022-09-26T09:20:38.872Z,1.92
2022-09-26T09:23:21.610Z,2.17
2022-09-26T09:29:49.164Z,2.17
2022-09-26T09:32:20.094Z,2.25
2022-09-26T09:34:53.670Z,2.00
2022-09-26T09:37:37.908Z,2.35
2022-09-26T09:40:12.446Z,2.65
2022-09-26T09:43:03.965Z,2.50
2022-09-26T09:45:45.199Z,1.80
2022-09-26T09:48:16.052Z,2.28
2022-09-26T09:51:24.423Z,2.00
2022-09-26T09:54:10.095Z,1.77
2022-09-26T09:56:58.423Z,1.90
2022-09-26T09:59:46.217Z,1.83
2022-09-26T10:02:19.549Z,1.75
2022-09-26T10:07:16.436Z,1.92
2022-09-26T10:09:46.536Z,2.40
2022-09-26T10:12:20.188Z,2.28
2022-09-26T10:14:53.124Z,1.95
2022-09-26T10:17:23.826Z,2.03
2022-09-26T10:19:51.136Z,1.75
2022-09-26T11:32:56.560Z,1.48
2022-09-26T11:36:19.620Z,1.45
2022-09-26T11:50:47.886Z,1.52
2022-09-26T11:54:10.099Z,1.60
2022-09-26T11:56:42.819Z,1.45
2022-09-26T11:59:39.849Z,2.30
2022-09-26T12:02:32.661Z,1.85
2022-09-26T12:05:02.360Z,1.87
2022-09-26T12:08:06.291Z,2.10
2022-09-26T12:10:53.405Z,2.08
2022-09-26T12:13:38.766Z,2.20
2022-09-26T12:16:22.941Z,2.03
2022-09-26T12:19:16.629Z,3.35
2022-09-26T12:22:17.578Z,2.25
2022-09-26T12:24:49.959Z,2.40
2022-09-26T12:27:34.047Z,2.47
2022-09-26T12:30:17.363Z,2.67
2022-09-26T12:32:56.761Z,2.78
2022-09-26T12:35:32.284Z,3.15
2022-09-26T12:38:17.121Z,2.47
2022-09-26T12:40:56.227Z,2.38
2022-09-26T12:44:00.297Z,2.20
2022-09-26T12:49:44.048Z,2.70
2022-09-26T12:52:30.365Z,2.10
2022-09-26T12:55:27.754Z,2.30
2022-09-26T12:58:00.855Z,2.83
2022-09-26T13:00:37.175Z,2.10
2022-09-26T13:03:22.009Z,1.88
2022-09-26T13:06:08.338Z,1.80
2022-09-26T13:08:57.485Z,3.05
2022-09-26T13:11:32.725Z,1.95
2022-09-26T13:14:21.597Z,2.53
2022-09-26T13:17:10.102Z,2.05
2022-09-26T13:20:03.867Z,2.47
2022-09-26T13:25:25.167Z,2.30
2022-09-26T13:28:24.442Z,2.20
2022-09-26T13:31:02.099Z,1.70
2022-09-26T13:33:40.519Z,2.38
2022-09-26T13:36:10.064Z,1.48
2022-09-26T13:38:58.260Z,1.83
2022-09-26T13:42:02.357Z,1.30
2022-09-26T13:45:00.472Z,1.80
2022-09-26T13:47:39.646Z,1.85
2022-09-26T13:50:29.384Z,1.50
2022-09-26T13:53:17.768Z,1.67
2022-09-26T13:55:45.575Z,1.83
2022-09-26T13:58:24.986Z,1.67
2022-09-26T14:00:54.947Z,1.55
2022-09-26T14:03:22.971Z,1.52
2022-09-26T14:05:52.698Z,1.77
2022-09-26T14:08:44.009Z,2.25
2022-09-26T14:11:19.976Z,3.28
2022-09-26T14:13:48.721Z,3.35
2022-09-26T14:16:36.811Z,3.58
2022-09-26T14:19:11.147Z,2.70
2022-09-26T14:21:46.557Z,3.22
2022-09-26T14:24:33.521Z,2.78
2022-09-26T14:27:04.433Z,3.55
2022-09-26T14:29:40.367Z,3.85
2022-09-26T14:32:10.579Z,3.42
2022-09-26T14:34:49.348Z,3.75
2022-09-26T14:37:41.340Z,2.80
2022-09-26T14:40:08.343Z,2.85
2022-09-26T14:42:38.047Z,2.67
2022-09-26T14:45:21.096Z,3.50
2022-09-26T14:48:03.625Z,4.93
2022-09-26T14:53:53.334Z,3.78
2022-09-26T14:59:44.748Z,3.60
2022-09-26T15:02:16.080Z,3.45
2022-09-26T15:04:48.228Z,3.17
2022-09-26T15:10:23.009Z,3.55
2022-09-26T15:22:04.560Z,5.80
2022-09-26T15:30:22.045Z,3.80
2022-09-26T15:38:14.020Z,2.92
2022-09-26T15:40:45.360Z,3.83
2022-09-26T15:54:42.458Z,3.17
2022-09-26T16:02:40.188Z,3.60
2022-09-26T16:18:57.706Z,3.00
2022-09-26T16:27:28.973Z,3.15
2022-09-26T16:49:48.659Z,3.50
2022-09-26T16:52:25.300Z,2.58
2022-09-26T16:54:54.482Z,2.80
2022-09-26T16:57:24.766Z,2.80
2022-09-26T16:59:53.118Z,3.55
2022-09-26T17:02:27.545Z,2.88
2022-09-26T17:04:54.856Z,4.22
2022-09-26T17:07:23.075Z,2.80
2022-09-26T17:09:50.106Z,4.53
2022-09-26T17:12:22.754Z,3.55
2022-09-26T17:14:56.869Z,3.95
2022-09-26T17:17:27.890Z,4.80
2022-09-26T17:19:59.544Z,3.58
2022-09-26T17:22:28.452Z,4.07
2022-09-26T17:24:55.777Z,4.30
2022-09-26T17:27:30.657Z,3.13
2022-09-26T17:30:05.616Z,3.17
2022-09-26T17:32:46.337Z,3.22
2022-09-26T17:35:21.044Z,4.05
2022-09-26T17:37:51.436Z,2.92
2022-09-26T17:40:24.514Z,2.30
2022-09-26T17:48:37.757Z,2.63
2022-09-26T17:51:05.984Z,3.35
2022-09-26T17:53:40.317Z,3.03
2022-09-26T17:56:13.479Z,2.30
2022-09-26T17:58:44.385Z,4.45
2022-09-26T18:01:36.360Z,4.43
2022-09-26T18:04:08.302Z,3.33
2022-09-26T18:09:19.451Z,3.53
2022-09-26T18:12:05.074Z,4.00
2022-09-26T18:14:34.206Z,4.25
2022-09-26T18:17:01.701Z,2.58
2022-09-26T18:19:29.178Z,3.45
2022-09-26T18:24:42.009Z,3.65
2022-09-26T18:27:14.573Z,3.60
2022-09-26T18:29:45.298Z,4.80
2022-09-26T18:32:22.174Z,3.30
2022-09-26T18:34:49.007Z,5.45
2022-09-26T18:37:16.422Z,2.97
2022-09-26T18:39:43.431Z,2.97
2022-09-26T18:42:13.961Z,3.47
2022-09-26T18:44:42.304Z,3.22
2022-09-26T18:47:17.655Z,3.50
2022-09-26T18:49:47.285Z,2.95
2022-09-26T18:52:16.578Z,2.60
2022-09-26T18:54:45.335Z,2.70
2022-09-26T18:57:31.003Z,2.22
2022-09-26T19:00:00.304Z,2.65
2022-09-26T19:02:33.595Z,2.95
2022-09-26T19:05:02.782Z,2.28
2022-09-26T19:07:33.491Z,2.65
2022-09-26T19:10:00.513Z,2.83
2022-09-26T19:12:27.314Z,2.55
2022-09-26T19:14:53.994Z,2.60
2022-09-26T19:17:20.938Z,2.60
2022-09-26T19:19:47.594Z,2.20
2022-09-26T19:22:17.506Z,4.28
2022-09-26T19:24:59.433Z,3.30
2022-09-26T19:27:30.376Z,2.67
2022-09-26T19:29:59.890Z,3.00
2022-09-26T19:32:44.688Z,3.20
2022-09-26T19:35:23.268Z,3.28
2022-09-26T19:37:50.098Z,3.90
2022-09-26T19:40:18.776Z,2.97
2022-09-26T19:42:46.219Z,4.10
2022-09-26T19:45:14.366Z,2.72
2022-09-26T19:47:45.067Z,5.45
2022-09-26T19:50:23.527Z,2.17
2022-09-26T19:52:52.863Z,2.95
2022-09-26T19:55:24.422Z,3.03
2022-09-26T19:57:53.001Z,3.42
2022-09-26T20:00:20.310Z,3.20
2022-09-26T20:02:50.601Z,3.30
2022-09-26T20:05:22.193Z,3.30
2022-09-26T20:07:49.238Z,2.65
2022-09-26T20:10:19.147Z,4.93
2022-09-26T20:12:47.078Z,3.38
2022-09-26T20:15:15.049Z,2.30
2022-09-26T20:17:44.623Z,2.53
2022-09-26T20:20:23.415Z,2.67
2022-09-26T20:22:51.683Z,2.63
2022-09-26T20:25:27.062Z,2.45
2022-09-26T20:27:54.792Z,2.70
2022-09-26T20:30:39.890Z,2.45
2022-09-26T20:33:06.922Z,2.00
2022-09-26T20:35:36.991Z,2.47
2022-09-26T20:38:07.328Z,2.08
2022-09-26T20:40:35.331Z,2.55
2022-09-26T20:43:05.531Z,2.63
2022-09-26T20:45:40.881Z,2.40
2022-09-26T20:48:18.950Z,2.70
2022-09-26T20:50:46.051Z,1.90
2022-09-26T20:53:21.119Z,3.10
2022-09-26T20:55:48.742Z,2.55
2022-09-26T20:58:15.430Z,2.63
2022-09-26T21:00:44.156Z,3.03
2022-09-26T21:03:17.419Z,3.97
2022-09-26T21:08:30.993Z,2.65
2022-09-26T21:10:59.368Z,2.45
2022-09-26T21:13:26.062Z,3.10
2022-09-26T21:15:53.257Z,2.40
2022-09-26T21:18:29.475Z,2.97
2022-09-26T21:21:04.127Z,2.38
2022-09-26T21:23:31.419Z,3.63
2022-09-26T21:25:58.127Z,2.40
2022-09-26T21:28:27.153Z,2.28
2022-09-26T21:31:05.042Z,2.70
2022-09-26T21:33:31.844Z,1.98
2022-09-26T21:35:58.577Z,2.20
2022-09-26T21:38:26.623Z,2.05
2022-09-26T21:40:59.748Z,2.88
2022-09-26T21:43:31.868Z,2.67
2022-09-26T21:45:58.914Z,2.25
2022-09-26T21:48:26.164Z,2.50
2022-09-26T21:50:58.287Z,2.45
2022-09-26T21:53:45.714Z,1.85
2022-09-26T21:56:20.768Z,1.70
2022-09-26T21:58:48.409Z,2.28
2022-09-26T22:01:15.583Z,2.05
2022-09-26T22:03:42.383Z,2.78
2022-09-26T22:06:10.102Z,1.95
2022-09-26T22:08:38.343Z,2.00
2022-09-26T22:11:06.334Z,2.15
2022-09-26T22:13:36.192Z,2.33
2022-09-26T22:16:06.799Z,2.20
2022-09-26T22:18:34.979Z,2.10
2022-09-26T22:21:04.451Z,1.80
2022-09-26T22:23:32.648Z,2.05
2022-09-26T22:25:59.616Z,3.00
2022-09-26T22:28:26.931Z,2.28
2022-09-26T22:30:54.726Z,2.50
2022-09-26T22:33:22.967Z,2.75
2022-09-26T22:35:50.826Z,2.75
2022-09-26T22:38:20.814Z,2.58
2022-09-26T22:40:55.936Z,2.22
2022-09-26T22:43:22.905Z,2.30
2022-09-26T22:45:49.858Z,2.38
2022-09-26T22:48:17.190Z,2.40
2022-09-26T22:50:44.747Z,2.53
2022-09-26T22:53:12.442Z,1.83
2022-09-26T22:55:39.168Z,2.22
2022-09-26T22:58:05.951Z,3.22
2022-09-26T23:00:32.578Z,2.00
2022-09-26T23:02:59.351Z,2.22
2022-09-26T23:05:26.023Z,3.15
2022-09-26T23:07:55.875Z,2.50
2022-09-26T23:10:22.510Z,2.10
2022-09-26T23:12:50.771Z,2.83
2022-09-26T23:15:18.547Z,2.20
2022-09-26T23:17:46.769Z,2.45
2022-09-26T23:20:13.435Z,2.05
2022-09-26T23:22:40.436Z,2.90
2022-09-26T23:25:08.685Z,2.60
2022-09-26T23:27:35.535Z,2.72
2022-09-26T23:30:02.449Z,2.22
2022-09-26T23:32:29.120Z,3.15
2022-09-26T23:34:55.788Z,3.92
2022-09-26T23:37:22.623Z,2.25
2022-09-26T23:39:49.390Z,2.72
2022-09-26T23:42:16.046Z,2.65
2022-09-26T23:44:42.770Z,2.35
2022-09-26T23:47:09.473Z,2.45
2022-09-26T23:49:36.142Z,2.42
2022-09-26T23:52:02.902Z,2.92
2022-09-26T23:54:29.623Z,2.58
2022-09-26T23:56:56.250Z,4.13
2022-09-26T23:59:23.093Z,2.85
